Terminal Aerodrome Forecast
Issued by NWS Cleveland, OH

Home | Current Version | Previous Version | Graphics & Text | Print | Product List | Glossary On
Versions: 1 2 3 4 5 6 7 8 9 10 11 12 13 14 15 16 17 18 19 20 21 22 23 24 25 26 27 28
000
FTUS41 KCLE 241700
TAFCLE
TAF
KCLE 241726Z 2418/2524 22020G30KT P6SM VCSH OVC035
     FM241900 23028G42KT P6SM OVC035
     FM250000 24025G35KT P6SM OVC035
     FM250700 24015G25KT P6SM OVC030
     FM251200 24010G20KT P6SM OVC030
     FM251800 25010KT P6SM OVC030=

USA.gov is the U.S. government's official web portal to all federal, state and local government web resources and services.